createdAt,value
2018-12-09T00:00:27.083Z,4.83
2018-12-09T00:02:55.108Z,7.30
2018-12-09T00:05:23.155Z,6.53
2018-12-09T00:07:51.227Z,5.80
2018-12-09T00:10:19.241Z,3.77
2018-12-09T00:12:47.215Z,3.70
2018-12-09T00:15:15.231Z,4.63
2018-12-09T00:17:43.215Z,4.77
2018-12-09T00:20:11.219Z,4.27
2018-12-09T00:22:39.227Z,6.77
2018-12-09T00:25:07.319Z,4.60
2018-12-09T00:27:35.423Z,5.93
2018-12-09T00:30:03.835Z,3.17
2018-12-09T00:32:31.848Z,5.03
2018-12-09T00:34:59.827Z,5.60
2018-12-09T00:37:27.803Z,5.10
2018-12-09T00:39:55.795Z,8.10
2018-12-09T00:42:24.159Z,5.70
2018-12-09T00:44:52.756Z,4.40
2018-12-09T00:47:21.119Z,4.67
2018-12-09T00:49:49.128Z,6.33
2018-12-09T00:52:17.136Z,9.17
2018-12-09T00:54:45.123Z,7.53
2018-12-09T00:57:13.163Z,7.80
2018-12-09T00:59:41.249Z,9.80
2018-12-09T01:02:09.235Z,8.33
2018-12-09T01:04:37.288Z,11.33
2018-12-09T01:07:05.288Z,9.17
2018-12-09T01:09:33.576Z,13.33
2018-12-09T01:12:01.962Z,13.10
2018-12-09T01:14:29.956Z,13.23
2018-12-09T01:16:57.952Z,15.73
2018-12-09T01:19:25.946Z,15.03
2018-12-09T01:21:53.969Z,15.67
2018-12-09T01:24:22.008Z,13.57
2018-12-09T01:26:50.348Z,13.40
2018-12-09T01:29:18.340Z,13.83
2018-12-09T01:31:46.460Z,14.17
2018-12-09T01:34:14.960Z,18.00
2018-12-09T01:36:42.969Z,12.93
2018-12-09T01:39:10.992Z,16.10
2018-12-09T01:41:38.996Z,18.57
2018-12-09T01:44:06.985Z,16.87
2018-12-09T01:46:35.064Z,14.33
2018-12-09T01:49:03.171Z,14.93
2018-12-09T01:51:31.276Z,17.00
2018-12-09T01:54:15.166Z,18.70
2018-12-09T01:56:43.166Z,15.30
2018-12-09T01:59:11.259Z,12.93
2018-12-09T02:01:39.617Z,16.13
2018-12-09T02:04:07.913Z,12.47
2018-12-09T02:06:35.937Z,10.33
2018-12-09T02:09:05.070Z,10.53
2018-12-09T02:11:33.173Z,20.17
2018-12-09T02:14:01.157Z,12.63
2018-12-09T02:16:29.137Z,13.53
2018-12-09T02:19:02.985Z,16.20
2018-12-09T02:21:30.985Z,12.93
2018-12-09T02:23:58.989Z,13.37
2018-12-09T02:26:27.029Z,16.60
2018-12-09T02:28:55.033Z,12.87
2018-12-09T02:31:23.037Z,10.57
2018-12-09T02:33:51.121Z,14.07
2018-12-09T02:36:19.113Z,18.60
2018-12-09T02:38:47.526Z,16.80
2018-12-09T02:41:15.533Z,13.37
2018-12-09T02:43:43.513Z,18.57
2018-12-09T02:46:11.506Z,14.50
2018-12-09T02:48:39.591Z,14.03
2018-12-09T02:51:07.590Z,16.30
2018-12-09T02:53:35.585Z,16.97
2018-12-09T02:56:03.629Z,17.70
2018-12-09T02:58:31.633Z,16.60
2018-12-09T03:00:59.717Z,12.30
2018-12-09T03:03:27.721Z,13.27
2018-12-09T03:05:55.718Z,15.60
2018-12-09T03:08:23.779Z,10.63
2018-12-09T03:10:51.879Z,11.03
2018-12-09T03:13:20.367Z,8.30
2018-12-09T03:15:48.386Z,10.93
2018-12-09T03:18:16.516Z,12.20
2018-12-09T03:20:44.497Z,14.27
2018-12-09T03:23:12.481Z,15.90
2018-12-09T03:25:40.477Z,15.10
2018-12-09T03:28:08.474Z,15.90
2018-12-09T03:30:36.460Z,10.93
2018-12-09T03:33:04.442Z,12.27
2018-12-09T03:35:32.526Z,13.47
2018-12-09T03:38:00.518Z,12.40
2018-12-09T03:40:28.588Z,11.20
2018-12-09T03:42:56.574Z,9.50
2018-12-09T03:45:24.563Z,7.10
2018-12-09T03:47:52.590Z,9.63
2018-12-09T03:50:20.598Z,9.97
2018-12-09T03:52:48.582Z,7.83
2018-12-09T03:55:16.714Z,7.63
2018-12-09T03:57:44.775Z,6.00
2018-12-09T04:00:13.167Z,6.07
2018-12-09T04:02:41.166Z,5.10
2018-12-09T04:05:09.134Z,5.30
2018-12-09T04:07:37.232Z,6.43
2018-12-09T04:10:05.555Z,5.07
2018-12-09T04:12:34.135Z,5.17
2018-12-09T04:15:02.215Z,5.10
2018-12-09T04:17:30.216Z,5.80
2018-12-09T04:19:58.312Z,5.07
2018-12-09T04:22:26.322Z,6.57
2018-12-09T04:24:54.527Z,6.33
2018-12-09T04:27:22.610Z,6.57
2018-12-09T04:29:50.620Z,6.53
2018-12-09T04:32:18.595Z,9.07
2018-12-09T04:34:46.594Z,10.87
2018-12-09T04:37:14.599Z,12.17
2018-12-09T04:39:42.751Z,8.93
2018-12-09T04:42:10.893Z,8.77
2018-12-09T04:44:38.871Z,14.03
2018-12-09T04:47:06.950Z,9.87
2018-12-09T04:49:35.083Z,13.07
2018-12-09T04:52:03.120Z,12.97
2018-12-09T04:57:06.039Z,15.43
2018-12-09T04:59:34.819Z,13.37
2018-12-09T05:02:02.988Z,10.60
2018-12-09T05:07:20.643Z,11.53
2018-12-09T05:09:48.644Z,9.27
2018-12-09T05:12:16.650Z,13.00
2018-12-09T05:14:44.672Z,13.63
2018-12-09T05:17:12.652Z,12.43
2018-12-09T05:19:40.848Z,15.87
2018-12-09T05:22:08.869Z,12.70
2018-12-09T05:24:36.864Z,15.33
2018-12-09T05:27:04.940Z,14.70
2018-12-09T05:29:32.944Z,13.73
2018-12-09T05:32:01.152Z,11.40
2018-12-09T05:34:29.164Z,16.70
2018-12-09T05:36:57.173Z,14.53
2018-12-09T05:39:25.164Z,9.93
2018-12-09T05:41:53.172Z,13.83
2018-12-09T05:44:21.272Z,12.23
2018-12-09T05:46:49.248Z,10.73
2018-12-09T05:49:17.241Z,10.60
2018-12-09T05:51:45.244Z,12.27
2018-12-09T05:54:13.237Z,13.10
2018-12-09T05:56:41.217Z,13.20
2018-12-09T05:59:09.204Z,11.27
2018-12-09T06:01:37.197Z,9.00
2018-12-09T06:04:05.181Z,11.80
2018-12-09T06:06:33.180Z,7.80
2018-12-09T06:09:01.189Z,11.10
2018-12-09T06:11:29.196Z,8.67
2018-12-09T06:13:57.237Z,9.37
2018-12-09T06:16:25.245Z,12.60
2018-12-09T06:18:53.294Z,7.83
2018-12-09T06:21:21.386Z,14.57
2018-12-09T06:23:49.381Z,8.63
2018-12-09T06:26:17.389Z,10.40
2018-12-09T06:28:45.385Z,10.60
2018-12-09T06:31:13.381Z,11.37
2018-12-09T06:33:41.397Z,11.37
2018-12-09T06:36:09.485Z,9.73
2018-12-09T06:38:37.479Z,11.23
2018-12-09T06:41:05.477Z,8.90
2018-12-09T06:43:33.479Z,8.60
2018-12-09T06:46:01.501Z,6.60
2018-12-09T06:48:29.521Z,7.47
2018-12-09T06:50:57.525Z,6.83
2018-12-09T06:53:25.513Z,7.00
2018-12-09T06:55:53.525Z,8.77
2018-12-09T06:58:21.734Z,10.50
2018-12-09T07:00:49.732Z,8.83
2018-12-09T07:03:17.998Z,9.70
2018-12-09T07:05:45.977Z,14.70
2018-12-09T07:08:14.086Z,12.07
2018-12-09T07:10:42.490Z,8.97
2018-12-09T07:13:10.494Z,10.23
2018-12-09T07:15:38.594Z,8.43
2018-12-09T07:18:06.602Z,12.23
2018-12-09T07:20:34.634Z,11.13
2018-12-09T07:23:03.143Z,18.07
2018-12-09T07:25:31.130Z,9.37
2018-12-09T07:27:59.138Z,8.77
2018-12-09T07:30:27.138Z,10.07
2018-12-09T07:32:55.159Z,9.40
2018-12-09T07:35:23.191Z,10.57
2018-12-09T07:37:51.202Z,7.70
2018-12-09T07:40:19.182Z,8.70
2018-12-09T07:42:47.166Z,9.80
2018-12-09T07:45:15.186Z,5.67
2018-12-09T07:47:43.184Z,6.30
2018-12-09T07:50:11.291Z,10.00
2018-12-09T07:52:39.279Z,6.40
2018-12-09T07:55:07.283Z,3.80
2018-12-09T07:57:35.299Z,5.30
2018-12-09T08:00:03.619Z,5.50
2018-12-09T08:02:31.607Z,6.10
2018-12-09T08:04:59.643Z,5.97
2018-12-09T08:07:27.631Z,4.20
2018-12-09T08:09:55.631Z,4.40
2018-12-09T08:12:23.639Z,2.87
2018-12-09T08:14:51.627Z,4.30
2018-12-09T08:17:19.623Z,3.27
2018-12-09T08:19:47.951Z,1.47
2018-12-09T08:22:16.048Z,4.87
2018-12-09T08:24:44.055Z,4.63
2018-12-09T08:27:12.073Z,3.00
2018-12-09T08:29:40.059Z,3.50
2018-12-09T08:32:08.055Z,1.90
2018-12-09T08:34:36.083Z,4.07
2018-12-09T08:37:04.118Z,5.83
2018-12-09T08:39:32.199Z,4.13
2018-12-09T08:42:00.215Z,3.93
2018-12-09T08:44:28.207Z,3.73
2018-12-09T08:46:56.203Z,2.03
2018-12-09T08:49:24.179Z,2.43
2018-12-09T08:51:52.179Z,3.27
2018-12-09T08:54:20.175Z,5.60
2018-12-09T08:56:48.252Z,3.50
2018-12-09T08:59:16.280Z,3.23
2018-12-09T09:01:44.272Z,2.80
2018-12-09T09:04:12.284Z,2.87
2018-12-09T09:06:40.272Z,3.57
2018-12-09T09:09:08.266Z,2.93
2018-12-09T09:11:36.303Z,3.77
2018-12-09T09:14:04.392Z,3.80
2018-12-09T09:16:32.396Z,3.77
2018-12-09T09:19:00.428Z,3.37
2018-12-09T09:21:28.400Z,3.63
2018-12-09T09:23:56.398Z,3.20
2018-12-09T09:26:24.400Z,3.03
2018-12-09T09:28:52.419Z,0.90
2018-12-09T09:31:20.460Z,1.80
2018-12-09T09:33:48.472Z,1.57
2018-12-09T09:36:16.563Z,2.63
2018-12-09T09:38:44.565Z,1.13
2018-12-09T09:41:12.644Z,2.47
2018-12-09T09:43:40.640Z,1.63
2018-12-09T09:46:08.671Z,2.90
2018-12-09T09:48:36.677Z,3.10
2018-12-09T09:51:04.700Z,1.80
2018-12-09T09:53:32.704Z,2.97
2018-12-09T09:56:00.747Z,2.13
2018-12-09T09:58:28.932Z,1.60
2018-12-09T10:00:57.043Z,3.20
2018-12-09T10:03:25.964Z,3.10
2018-12-09T10:05:54.468Z,2.33
2018-12-09T10:08:22.532Z,3.50
2018-12-09T10:10:50.575Z,1.70
2018-12-09T10:13:18.592Z,3.07
2018-12-09T10:15:46.644Z,2.80
2018-12-09T10:18:14.689Z,37.67
2018-12-09T10:20:42.740Z,1.57
2018-12-09T10:23:10.767Z,2.87
2018-12-09T10:25:38.824Z,3.77
2018-12-09T10:28:06.820Z,2.47
2018-12-09T10:30:34.872Z,4.43
2018-12-09T10:33:02.912Z,5.17
2018-12-09T10:35:30.940Z,1.70
2018-12-09T10:37:58.956Z,3.23
2018-12-09T10:40:26.960Z,2.20
2018-12-09T10:42:54.976Z,2.37
2018-12-09T10:45:22.996Z,1.30
2018-12-09T10:47:51.113Z,3.77
2018-12-09T10:50:19.136Z,3.80
2018-12-09T10:52:47.239Z,3.37
2018-12-09T10:55:15.260Z,2.63
2018-12-09T10:57:43.360Z,3.77
2018-12-09T11:00:15.700Z,2.17
2018-12-09T11:02:43.724Z,1.27
2018-12-09T11:05:11.705Z,2.90
2018-12-09T11:07:39.696Z,2.67
2018-12-09T11:10:07.781Z,2.63
2018-12-09T11:12:35.794Z,3.97
2018-12-09T11:15:04.029Z,3.00
2018-12-09T11:17:32.013Z,3.70
2018-12-09T11:20:00.002Z,4.30
2018-12-09T11:22:28.128Z,2.97
2018-12-09T11:24:56.113Z,4.37
2018-12-09T11:27:24.145Z,4.53
2018-12-09T11:29:52.160Z,6.37
2018-12-09T11:32:20.178Z,4.80
2018-12-09T11:34:48.186Z,4.47
2018-12-09T11:37:16.182Z,3.80
2018-12-09T11:39:44.170Z,3.43
2018-12-09T11:42:12.162Z,4.27
2018-12-09T11:44:40.379Z,4.73
2018-12-09T11:47:08.375Z,3.03
2018-12-09T11:49:36.391Z,5.30
2018-12-09T11:52:04.755Z,7.23
2018-12-09T11:54:32.762Z,5.27
2018-12-09T11:57:00.751Z,5.83
2018-12-09T11:59:28.758Z,4.00
2018-12-09T12:01:57.509Z,4.37
2018-12-09T12:04:25.495Z,7.23
2018-12-09T12:06:53.483Z,5.90
2018-12-09T12:09:21.476Z,6.27
2018-12-09T12:11:49.472Z,8.67
2018-12-09T12:14:17.472Z,5.97
2018-12-09T12:16:45.512Z,5.00
2018-12-09T12:19:13.544Z,7.73
2018-12-09T12:21:41.580Z,6.13
2018-12-09T12:24:09.556Z,6.83
2018-12-09T12:26:37.556Z,6.60
2018-12-09T12:29:05.548Z,9.77
2018-12-09T12:31:33.561Z,7.40
2018-12-09T12:34:01.561Z,5.13
2018-12-09T12:36:29.560Z,5.60
2018-12-09T12:38:57.528Z,7.60
2018-12-09T12:41:25.696Z,6.23
2018-12-09T12:43:53.752Z,7.43
2018-12-09T12:46:21.820Z,7.10
2018-12-09T12:48:49.904Z,7.13
2018-12-09T12:51:17.916Z,8.60
2018-12-09T12:53:45.904Z,7.67
2018-12-09T12:56:13.922Z,7.50
2018-12-09T12:58:41.897Z,8.33
2018-12-09T13:01:09.920Z,8.20
2018-12-09T13:03:37.908Z,9.93
2018-12-09T13:06:06.000Z,8.97
2018-12-09T13:08:34.184Z,9.70
2018-12-09T13:11:02.190Z,6.13
2018-12-09T13:13:30.672Z,8.07
2018-12-09T13:15:58.744Z,8.70
2018-12-09T13:18:26.781Z,9.27
2018-12-09T13:20:54.784Z,7.27
2018-12-09T13:23:22.806Z,8.70
2018-12-09T13:25:50.869Z,7.30
2018-12-09T13:28:18.860Z,7.13
2018-12-09T13:30:46.865Z,7.23
2018-12-09T13:33:14.976Z,9.47
2018-12-09T13:35:43.021Z,9.30
2018-12-09T13:38:11.211Z,10.17
2018-12-09T13:40:39.292Z,12.63
2018-12-09T13:43:07.273Z,13.63
2018-12-09T13:45:35.372Z,12.50
2018-12-09T13:48:03.592Z,12.50
2018-12-09T13:50:31.795Z,7.17
2018-12-09T13:52:59.789Z,8.00
2018-12-09T13:55:27.989Z,9.20
2018-12-09T13:57:55.969Z,9.60
2018-12-09T14:00:24.021Z,15.10
2018-12-09T14:02:52.037Z,7.30
2018-12-09T14:05:20.049Z,9.70
2018-12-09T14:07:48.068Z,10.33
2018-12-09T14:10:16.060Z,10.57
2018-12-09T14:12:44.073Z,8.03
2018-12-09T14:15:12.161Z,8.80
2018-12-09T14:17:40.147Z,6.77
2018-12-09T14:20:08.718Z,9.40
2018-12-09T14:22:43.163Z,11.30
2018-12-09T14:25:11.189Z,7.83
2018-12-09T14:27:39.191Z,9.50
2018-12-09T14:30:07.257Z,9.10
2018-12-09T14:32:35.249Z,12.60
2018-12-09T14:35:03.941Z,7.90
2018-12-09T14:37:31.921Z,8.17
2018-12-09T14:39:59.985Z,9.67
2018-12-09T14:42:28.085Z,7.63
2018-12-09T14:44:56.073Z,7.57
2018-12-09T14:47:24.133Z,9.97
2018-12-09T14:49:52.118Z,8.40
2018-12-09T14:52:20.111Z,7.90
2018-12-09T14:54:48.110Z,7.00
2018-12-09T14:57:16.098Z,5.47
2018-12-09T14:59:44.164Z,6.93
2018-12-09T15:02:12.226Z,9.13
2018-12-09T15:04:40.206Z,6.57
2018-12-09T15:07:08.298Z,12.07
2018-12-09T15:09:36.402Z,10.70
2018-12-09T15:12:04.396Z,7.23
2018-12-09T15:14:32.407Z,10.83
2018-12-09T15:17:00.406Z,12.43
2018-12-09T15:19:28.394Z,7.20
2018-12-09T15:21:56.403Z,11.33
2018-12-09T15:24:24.691Z,9.40
2018-12-09T15:26:52.779Z,13.23
2018-12-09T15:29:20.814Z,7.07
2018-12-09T15:31:48.894Z,7.73
2018-12-09T15:34:16.912Z,9.43
2018-12-09T15:36:44.899Z,10.03
2018-12-09T15:39:12.898Z,11.27
2018-12-09T15:41:40.892Z,9.47
2018-12-09T15:44:08.991Z,7.60
2018-12-09T15:46:37.047Z,7.70
2018-12-09T15:49:05.042Z,7.43
2018-12-09T15:51:33.063Z,8.03
2018-12-09T15:54:01.291Z,10.20
2018-12-09T15:56:29.386Z,11.10
2018-12-09T15:58:57.391Z,10.60
2018-12-09T16:01:25.383Z,7.33
2018-12-09T16:03:53.375Z,8.90
2018-12-09T16:06:21.375Z,10.07
2018-12-09T16:08:49.403Z,5.30
2018-12-09T16:11:17.438Z,11.27
2018-12-09T16:13:46.267Z,11.13
2018-12-09T16:16:14.302Z,7.10
2018-12-09T16:18:42.291Z,10.07
2018-12-09T16:21:10.295Z,10.50
2018-12-09T16:23:38.287Z,14.20
2018-12-09T16:26:06.278Z,9.57
2018-12-09T16:28:34.419Z,11.73
2018-12-09T16:31:02.443Z,11.47
2018-12-09T16:33:30.451Z,5.60
2018-12-09T16:35:58.443Z,9.17
2018-12-09T16:38:26.426Z,8.57
2018-12-09T16:40:54.587Z,7.37
2018-12-09T16:43:22.679Z,8.67
2018-12-09T16:45:57.328Z,7.97
2018-12-09T16:48:25.335Z,13.90
2018-12-09T16:50:59.943Z,8.93
2018-12-09T16:53:27.939Z,13.20
2018-12-09T16:55:55.959Z,11.53
2018-12-09T16:58:23.978Z,14.70
2018-12-09T17:00:51.983Z,15.50
2018-12-09T17:03:19.967Z,12.53
2018-12-09T17:08:28.307Z,12.03
2018-12-09T17:10:56.308Z,15.17
2018-12-09T17:13:24.306Z,11.13
2018-12-09T17:15:52.312Z,16.17
2018-12-09T17:18:20.315Z,17.23
2018-12-09T17:20:48.329Z,17.13
2018-12-09T17:23:16.336Z,13.90
2018-12-09T17:25:44.315Z,14.17
2018-12-09T17:28:12.314Z,10.70
2018-12-09T17:30:40.328Z,11.37
2018-12-09T17:33:08.349Z,12.33
2018-12-09T17:35:36.331Z,16.83
2018-12-09T17:38:04.359Z,11.37
2018-12-09T17:40:32.392Z,13.43
2018-12-09T17:43:00.416Z,15.93
2018-12-09T17:45:28.407Z,18.07
2018-12-09T17:47:56.412Z,15.80
2018-12-09T17:50:24.417Z,16.57
2018-12-09T17:52:52.414Z,14.50
2018-12-09T17:55:20.456Z,13.90
2018-12-09T17:57:48.497Z,14.27
2018-12-09T18:00:16.512Z,13.33
2018-12-09T18:02:44.505Z,17.27
2018-12-09T18:05:12.509Z,14.03
2018-12-09T18:07:40.520Z,18.37
2018-12-09T18:10:08.618Z,13.23
2018-12-09T18:12:36.613Z,15.90
2018-12-09T18:15:05.881Z,13.20
2018-12-09T18:17:33.909Z,17.17
2018-12-09T18:20:02.049Z,14.10
2018-12-09T18:22:30.161Z,14.17
2018-12-09T18:24:58.181Z,15.33
2018-12-09T18:27:26.209Z,18.27
2018-12-09T18:29:54.233Z,15.30
2018-12-09T18:32:22.321Z,17.63
2018-12-09T18:34:50.325Z,19.57
2018-12-09T18:37:18.437Z,19.40
2018-12-09T18:39:46.669Z,15.80
2018-12-09T18:42:14.713Z,16.83
2018-12-09T18:44:42.717Z,21.50
2018-12-09T18:47:10.725Z,18.00
2018-12-09T18:49:38.861Z,17.37
2018-12-09T18:52:06.877Z,21.87
2018-12-09T18:54:34.893Z,38.37
2018-12-09T18:57:02.881Z,21.20
2018-12-09T18:59:30.889Z,25.90
2018-12-09T19:01:58.893Z,25.83
2018-12-09T19:04:27.046Z,41.67
2018-12-09T19:06:55.061Z,14.37
2018-12-09T19:09:23.066Z,16.07
2018-12-09T19:11:51.074Z,13.77
2018-12-09T19:14:19.078Z,17.63
2018-12-09T19:16:47.078Z,17.93
2018-12-09T19:19:15.087Z,18.37
2018-12-09T19:21:43.110Z,17.10
2018-12-09T19:24:11.134Z,14.47
2018-12-09T19:26:39.210Z,22.83
2018-12-09T19:29:07.214Z,15.67
2018-12-09T19:31:35.262Z,21.50
2018-12-09T19:34:03.348Z,16.20
2018-12-09T19:36:31.517Z,11.83
2018-12-09T19:38:59.530Z,18.60
2018-12-09T19:41:27.522Z,19.83
2018-12-09T19:43:55.508Z,14.23
2018-12-09T19:46:23.527Z,15.30
2018-12-09T19:48:51.605Z,15.87
2018-12-09T19:51:19.614Z,14.03
2018-12-09T19:53:47.718Z,11.57
2018-12-09T19:56:15.703Z,13.23
2018-12-09T19:58:43.687Z,18.33
2018-12-09T20:01:11.691Z,15.67
2018-12-09T20:03:39.719Z,13.60
2018-12-09T20:06:08.842Z,14.93
2018-12-09T20:08:36.835Z,10.53
2018-12-09T20:11:04.831Z,12.10
2018-12-09T20:13:32.912Z,11.53
2018-12-09T20:16:00.923Z,13.73
2018-12-09T20:18:29.007Z,12.03
2018-12-09T20:20:57.035Z,13.70
2018-12-09T20:23:25.199Z,17.87
2018-12-09T20:25:53.183Z,10.10
2018-12-09T20:28:21.240Z,17.30
2018-12-09T20:30:49.240Z,17.87
2018-12-09T20:33:17.245Z,14.83
2018-12-09T20:35:45.234Z,16.27
2018-12-09T20:38:13.352Z,14.77
2018-12-09T20:40:41.367Z,16.40
2018-12-09T20:43:09.362Z,10.20
2018-12-09T20:45:37.355Z,19.77
2018-12-09T20:48:13.166Z,13.67
2018-12-09T20:50:35.484Z,18.63
2018-12-09T20:53:03.515Z,13.43
2018-12-09T20:55:31.556Z,10.80
2018-12-09T20:57:59.544Z,15.60
2018-12-09T21:00:27.556Z,19.77
2018-12-09T21:02:55.613Z,22.20
2018-12-09T21:05:23.604Z,18.10
2018-12-09T21:07:51.607Z,18.30
2018-12-09T21:10:19.724Z,17.53
2018-12-09T21:12:47.716Z,16.40
2018-12-09T21:15:15.700Z,18.07
2018-12-09T21:17:43.712Z,19.03
2018-12-09T21:20:11.860Z,16.20
2018-12-09T21:22:39.876Z,18.73
2018-12-09T21:25:07.988Z,19.37
2018-12-09T21:27:35.985Z,18.03
2018-12-09T21:30:04.284Z,18.60
2018-12-09T21:32:32.310Z,17.47
2018-12-09T21:35:00.314Z,20.33
2018-12-09T21:37:28.292Z,13.23
2018-12-09T21:39:56.309Z,18.80
2018-12-09T21:42:24.305Z,14.03
2018-12-09T21:44:52.293Z,14.60
2018-12-09T21:47:20.284Z,11.60
2018-12-09T21:49:48.465Z,20.17
2018-12-09T21:52:16.518Z,15.60
2018-12-09T21:54:44.513Z,15.80
2018-12-09T21:57:12.613Z,15.27
2018-12-09T21:59:40.671Z,16.00
2018-12-09T22:02:08.673Z,18.67
2018-12-09T22:04:36.653Z,16.43
2018-12-09T22:07:04.661Z,16.73
2018-12-09T22:09:32.784Z,16.97
2018-12-09T22:12:00.817Z,15.83
2018-12-09T22:14:28.825Z,15.50
2018-12-09T22:16:56.813Z,17.43
2018-12-09T22:21:48.611Z,15.70
2018-12-09T22:24:16.698Z,10.83
2018-12-09T22:26:44.691Z,18.20
2018-12-09T22:29:12.691Z,17.50
2018-12-09T22:31:40.698Z,21.47
2018-12-09T22:34:08.711Z,10.10
2018-12-09T22:36:36.727Z,7.87
2018-12-09T22:39:05.923Z,13.07
2018-12-09T22:41:33.901Z,12.20
2018-12-09T22:44:03.647Z,8.67
2018-12-09T22:46:31.634Z,7.50
2018-12-09T22:48:59.622Z,10.47
2018-12-09T22:51:27.632Z,6.77
2018-12-09T22:53:55.614Z,8.90
2018-12-09T22:56:23.639Z,9.27
2018-12-09T22:58:51.630Z,11.30
2018-12-09T23:01:20.906Z,15.50
2018-12-09T23:03:48.990Z,10.93
2018-12-09T23:06:17.082Z,15.67
2018-12-09T23:08:45.138Z,15.60
2018-12-09T23:11:13.134Z,12.73
2018-12-09T23:13:41.154Z,13.73
2018-12-09T23:16:09.156Z,11.13
2018-12-09T23:18:37.170Z,9.40
2018-12-09T23:21:05.266Z,9.03
2018-12-09T23:23:33.278Z,12.80
2018-12-09T23:26:01.267Z,11.53
2018-12-09T23:28:29.258Z,10.17
2018-12-09T23:30:57.273Z,10.50
2018-12-09T23:33:25.250Z,12.57
2018-12-09T23:35:53.250Z,7.43
2018-12-09T23:38:21.246Z,10.00
2018-12-09T23:40:49.294Z,7.20
2018-12-09T23:43:17.286Z,8.43
2018-12-09T23:45:45.266Z,8.50
2018-12-09T23:48:13.246Z,10.87
2018-12-09T23:50:41.242Z,6.23
2018-12-09T23:53:09.233Z,6.47
2018-12-09T23:55:37.238Z,10.30
2018-12-09T23:58:05.265Z,7.23
